createdAt,value
2018-02-13T00:00:03.598Z,-2.60
2018-02-13T00:02:33.580Z,-2.50
2018-02-13T00:05:01.700Z,-2.50
2018-02-13T00:07:29.850Z,-2.50
2018-02-13T00:09:57.992Z,-2.50
2018-02-13T00:12:26.248Z,-2.50
2018-02-13T00:14:54.377Z,-2.70
2018-02-13T00:17:22.545Z,-2.60
2018-02-13T00:19:50.677Z,-2.60
2018-02-13T00:22:18.822Z,-2.70
2018-02-13T00:24:46.944Z,-2.60
2018-02-13T00:27:15.884Z,-2.60
2018-02-13T00:29:44.004Z,-2.60
2018-02-13T00:32:12.908Z,-2.70
2018-02-13T00:34:41.046Z,-2.70
2018-02-13T00:37:09.208Z,-2.80
2018-02-13T00:39:37.408Z,-2.90
2018-02-13T00:42:05.560Z,-2.90
2018-02-13T00:44:33.687Z,-2.80
2018-02-13T00:47:01.808Z,-2.80
2018-02-13T00:49:29.959Z,-2.80
2018-02-13T00:51:58.076Z,-2.80
2018-02-13T00:54:26.993Z,-3.00
2018-02-13T00:56:55.125Z,-3.00
2018-02-13T00:59:24.031Z,-3.00
2018-02-13T01:01:52.161Z,-3.00
2018-02-13T01:04:20.320Z,-3.00
2018-02-13T01:06:48.459Z,-3.00
2018-02-13T01:09:16.606Z,-3.00
2018-02-13T01:11:44.748Z,-3.00
2018-02-13T01:14:13.036Z,-3.00
2018-02-13T01:16:41.169Z,-3.10
2018-02-13T01:19:09.314Z,-3.10
2018-02-13T01:21:37.444Z,-3.10
2018-02-13T01:24:05.601Z,-3.10
2018-02-13T01:26:33.757Z,-3.20
2018-02-13T01:29:01.916Z,-3.30
2018-02-13T01:31:30.146Z,-3.30
2018-02-13T01:33:58.280Z,-3.20
2018-02-13T01:36:26.417Z,-3.30
2018-02-13T01:38:54.573Z,-3.10
2018-02-13T01:41:23.481Z,-3.20
2018-02-13T01:43:51.665Z,-3.20
2018-02-13T01:46:19.776Z,-3.10
2018-02-13T01:48:47.902Z,-3.10
2018-02-13T01:51:16.040Z,-3.00
2018-02-13T01:53:44.941Z,-2.90
2018-02-13T01:56:13.092Z,-2.90
2018-02-13T01:58:41.229Z,-3.00
2018-02-13T02:01:09.433Z,-3.00
2018-02-13T02:03:38.338Z,-2.90
2018-02-13T02:06:07.236Z,-2.80
2018-02-13T02:08:35.380Z,-2.80
2018-02-13T02:11:03.559Z,-2.80
2018-02-13T02:13:32.465Z,-2.90
2018-02-13T02:16:01.365Z,-2.90
2018-02-13T02:18:29.637Z,-2.90
2018-02-13T02:20:57.778Z,-2.80
2018-02-13T02:23:25.917Z,-2.90
2018-02-13T02:25:54.079Z,-2.90
2018-02-13T02:28:22.208Z,-2.90
2018-02-13T02:30:50.344Z,-2.90
2018-02-13T02:33:18.505Z,-2.90
2018-02-13T02:35:46.854Z,-2.90
2018-02-13T02:38:14.972Z,-2.90
2018-02-13T02:40:43.140Z,-3.00
2018-02-13T02:43:11.307Z,-3.00
2018-02-13T02:45:39.421Z,-3.00
2018-02-13T02:48:07.587Z,-3.00
2018-02-13T02:50:35.742Z,-3.00
2018-02-13T02:53:04.047Z,-3.00
2018-02-13T02:55:32.919Z,-3.10
2018-02-13T02:58:01.837Z,-3.20
2018-02-13T03:00:30.025Z,-3.20
2018-02-13T03:02:58.170Z,-3.20
2018-02-13T03:05:26.305Z,-3.20
2018-02-13T03:07:54.440Z,-3.30
2018-02-13T03:10:22.568Z,-3.20
2018-02-13T03:12:51.468Z,-3.30
2018-02-13T03:15:19.596Z,-3.30
2018-02-13T03:17:47.717Z,-3.30
2018-02-13T03:20:15.862Z,-3.40
2018-02-13T03:22:44.770Z,-3.40
2018-02-13T03:25:14.075Z,-3.50
2018-02-13T03:27:42.189Z,-3.50
2018-02-13T03:30:10.330Z,-3.40
2018-02-13T03:32:38.447Z,-3.50
2018-02-13T03:35:06.602Z,-3.60
2018-02-13T03:37:34.941Z,-3.60
2018-02-13T03:40:03.092Z,-3.60
2018-02-13T03:42:31.221Z,-3.60
2018-02-13T03:44:59.389Z,-3.60
2018-02-13T03:47:27.524Z,-3.70
2018-02-13T03:49:55.664Z,-4.00
2018-02-13T03:52:24.621Z,-3.80
2018-02-13T03:54:52.794Z,-3.80
2018-02-13T03:57:20.930Z,-3.80
2018-02-13T03:59:49.205Z,-3.70
2018-02-13T04:02:17.326Z,-3.80
2018-02-13T04:04:45.482Z,-3.90
2018-02-13T04:07:13.612Z,-3.90
2018-02-13T04:09:41.776Z,-3.90
2018-02-13T04:12:10.697Z,-3.90
2018-02-13T04:14:38.824Z,-3.90
2018-02-13T04:17:07.752Z,-3.90
2018-02-13T04:19:35.896Z,-4.00
2018-02-13T04:22:04.805Z,-3.90
2018-02-13T04:24:32.931Z,-4.00
2018-02-13T04:27:01.077Z,-3.90
2018-02-13T04:29:29.376Z,-3.90
2018-02-13T04:31:57.512Z,-3.90
2018-02-13T04:34:25.717Z,-3.90
2018-02-13T04:36:53.859Z,-3.90
2018-02-13T04:39:21.979Z,-3.90
2018-02-13T04:41:50.960Z,-3.80
2018-02-13T04:44:19.114Z,-3.80
2018-02-13T04:46:47.256Z,-4.10
2018-02-13T04:49:15.385Z,-4.20
2018-02-13T04:51:43.520Z,-4.20
2018-02-13T04:54:11.646Z,-4.20
2018-02-13T04:56:39.813Z,-4.20
2018-02-13T04:59:08.697Z,-4.00
2018-02-13T05:01:37.674Z,-4.00
2018-02-13T05:04:05.961Z,-4.00
2018-02-13T05:06:34.104Z,-4.00
2018-02-13T05:09:02.258Z,-4.00
2018-02-13T05:11:30.385Z,-4.00
2018-02-13T05:13:58.529Z,-4.10
2018-02-13T05:16:26.669Z,-4.00
2018-02-13T05:18:54.867Z,-4.10
2018-02-13T05:21:23.021Z,-4.00
2018-02-13T05:23:51.161Z,-4.00
2018-02-13T05:26:19.303Z,-4.00
2018-02-13T05:28:48.226Z,-4.60
2018-02-13T05:31:16.353Z,-4.60
2018-02-13T05:33:44.500Z,-4.70
2018-02-13T05:36:12.626Z,-4.70
2018-02-13T05:38:40.898Z,-4.60
2018-02-13T05:41:09.060Z,-4.50
2018-02-13T05:43:37.991Z,-4.30
2018-02-13T05:46:06.121Z,-4.30
2018-02-13T05:48:34.256Z,-4.40
2018-02-13T05:51:02.397Z,-4.70
2018-02-13T05:53:30.557Z,-4.90
2018-02-13T05:55:58.717Z,-5.00
2018-02-13T05:58:27.584Z,-4.60
2018-02-13T06:00:56.608Z,-4.60
2018-02-13T06:03:24.745Z,-4.60
2018-02-13T06:05:53.745Z,-4.60
2018-02-13T06:08:21.870Z,-4.60
2018-02-13T06:10:50.020Z,-4.60
2018-02-13T06:13:18.137Z,-4.70
2018-02-13T06:15:46.281Z,-4.70
2018-02-13T06:18:14.412Z,-4.70
2018-02-13T06:20:42.552Z,-4.50
2018-02-13T06:23:10.693Z,-4.50
2018-02-13T06:25:38.829Z,-4.50
2018-02-13T06:28:06.965Z,-4.80
2018-02-13T06:30:35.157Z,-4.70
2018-02-13T06:33:04.050Z,-4.80
2018-02-13T06:35:32.192Z,-4.80
2018-02-13T06:38:00.317Z,-4.90
2018-02-13T06:40:29.317Z,-4.90
2018-02-13T06:42:57.456Z,-4.90
2018-02-13T06:45:26.357Z,-4.80
2018-02-13T06:47:54.477Z,-4.90
2018-02-13T06:50:22.637Z,-4.80
2018-02-13T06:52:50.758Z,-4.70
2018-02-13T06:55:18.953Z,-4.70
2018-02-13T06:57:47.076Z,-4.80
2018-02-13T07:00:15.631Z,-4.80
2018-02-13T07:02:43.768Z,-4.70
2018-02-13T07:05:11.887Z,-4.40
2018-02-13T07:07:40.033Z,-4.30
2018-02-13T07:10:08.173Z,-4.30
2018-02-13T07:12:36.452Z,-4.40
2018-02-13T07:15:04.588Z,-4.30
2018-02-13T07:17:32.724Z,-4.50
2018-02-13T07:20:00.894Z,-4.60
2018-02-13T07:22:29.034Z,-4.60
2018-02-13T07:24:57.925Z,-4.40
2018-02-13T07:27:26.185Z,-4.40
2018-02-13T07:29:54.361Z,-4.30
2018-02-13T07:32:23.265Z,-3.10
2018-02-13T07:34:52.237Z,-2.30
2018-02-13T07:37:21.136Z,-1.60
2018-02-13T07:39:49.278Z,-1.60
2018-02-13T07:42:18.924Z,0.20
2018-02-13T07:44:47.080Z,0.20
2018-02-13T07:47:15.240Z,1.70
2018-02-13T07:49:44.137Z,3.70
2018-02-13T07:52:12.276Z,3.70
2018-02-13T07:54:40.400Z,4.70
2018-02-13T07:57:08.528Z,5.30
2018-02-13T07:59:37.440Z,5.80
2018-02-13T08:02:06.321Z,6.70
2018-02-13T08:04:34.473Z,6.70
2018-02-13T08:07:02.592Z,5.70
2018-02-13T08:09:30.723Z,5.90
2018-02-13T08:11:58.840Z,5.90
2018-02-13T08:14:26.969Z,6.60
2018-02-13T08:16:55.852Z,8.40
2018-02-13T08:19:23.985Z,8.30
2018-02-13T08:21:52.102Z,8.40
2018-02-13T08:24:20.257Z,8.70
2018-02-13T08:26:48.372Z,9.00
2018-02-13T08:29:16.509Z,9.00
2018-02-13T08:31:44.633Z,9.00
2018-02-13T08:34:12.764Z,8.20
2018-02-13T08:36:41.664Z,8.90
2018-02-13T08:39:09.799Z,8.90
2018-02-13T08:41:37.917Z,9.20
2018-02-13T08:44:06.045Z,7.90
2018-02-13T08:46:34.177Z,6.20
2018-02-13T08:49:02.320Z,5.90
2018-02-13T08:51:30.450Z,7.50
2018-02-13T08:53:58.591Z,5.80
2018-02-13T08:56:26.721Z,6.90
2018-02-13T08:58:55.609Z,7.50
2018-02-13T09:01:24.509Z,7.50
2018-02-13T09:03:53.528Z,7.30
2018-02-13T09:06:21.644Z,7.30
2018-02-13T09:08:49.760Z,8.80
2018-02-13T09:11:17.896Z,8.90
2018-02-13T09:13:46.782Z,6.00
2018-02-13T09:16:15.685Z,6.40
2018-02-13T09:18:44.567Z,6.60
2018-02-13T09:21:13.466Z,7.80
2018-02-13T09:23:42.018Z,7.70
2018-02-13T09:26:10.133Z,8.80
2018-02-13T09:28:38.256Z,9.80
2018-02-13T09:31:06.392Z,9.90
2018-02-13T09:33:34.512Z,9.40
2018-02-13T09:36:03.420Z,7.80
2018-02-13T09:38:31.533Z,7.70
2018-02-13T09:41:00.422Z,9.40
2018-02-13T09:43:28.565Z,9.40
2018-02-13T09:45:56.749Z,8.90
2018-02-13T09:48:24.891Z,10.80
2018-02-13T09:50:53.782Z,11.60
2018-02-13T09:53:22.689Z,11.60
2018-02-13T09:55:50.813Z,11.60
2018-02-13T09:58:19.714Z,10.70
2018-02-13T10:00:48.348Z,10.70
2018-02-13T10:03:16.500Z,8.90
2018-02-13T10:05:45.356Z,9.10
2018-02-13T10:08:13.488Z,9.10
2018-02-13T10:10:41.604Z,9.30
2018-02-13T10:13:10.513Z,11.30
2018-02-13T10:15:38.793Z,11.30
2018-02-13T10:18:07.180Z,13.10
2018-02-13T10:20:35.308Z,12.00
2018-02-13T10:23:03.448Z,10.40
2018-02-13T10:25:31.589Z,9.90
2018-02-13T10:27:59.719Z,11.60
2018-02-13T10:30:27.835Z,11.70
2018-02-13T10:32:55.968Z,13.10
2018-02-13T10:35:24.089Z,12.60
2018-02-13T10:37:52.232Z,12.60
2018-02-13T10:40:21.112Z,10.90
2018-02-13T10:42:50.018Z,12.50
2018-02-13T10:45:18.133Z,12.50
2018-02-13T10:47:46.245Z,12.50
2018-02-13T10:50:15.150Z,14.80
2018-02-13T10:52:43.268Z,14.80
2018-02-13T10:55:11.396Z,15.40
2018-02-13T10:57:39.512Z,13.70
2018-02-13T11:00:07.641Z,10.40
2018-02-13T11:02:35.756Z,13.10
2018-02-13T11:05:03.893Z,14.10
2018-02-13T11:07:32.004Z,14.00
2018-02-13T11:10:00.144Z,13.00
2018-02-13T11:12:28.278Z,11.50
2018-02-13T11:14:57.160Z,12.00
2018-02-13T11:17:26.060Z,12.20
2018-02-13T11:19:54.189Z,12.20
2018-02-13T11:22:22.308Z,13.30
2018-02-13T11:24:50.448Z,11.90
2018-02-13T11:27:18.557Z,8.80
2018-02-13T11:29:46.688Z,7.30
2018-02-13T11:32:14.804Z,5.30
2018-02-13T11:34:42.956Z,5.10
2018-02-13T11:37:11.070Z,5.20
2018-02-13T11:39:39.237Z,5.20
2018-02-13T11:42:08.080Z,4.30
2018-02-13T11:44:36.970Z,4.90
2018-02-13T11:47:05.102Z,4.90
2018-02-13T11:49:33.221Z,4.30
2018-02-13T11:52:01.352Z,4.10
2018-02-13T11:54:29.477Z,3.70
2018-02-13T11:56:57.605Z,3.10
2018-02-13T11:59:26.485Z,3.10
2018-02-13T12:01:54.624Z,3.00
2018-02-13T12:04:22.724Z,3.50
2018-02-13T12:06:50.870Z,3.90
2018-02-13T12:09:18.989Z,5.10
2018-02-13T12:11:47.881Z,8.10
2018-02-13T12:14:16.756Z,6.80
2018-02-13T12:16:45.696Z,5.60
2018-02-13T12:19:13.847Z,5.60
2018-02-13T12:21:41.928Z,4.40
2018-02-13T12:24:10.058Z,4.00
2018-02-13T12:26:38.934Z,3.10
2018-02-13T12:29:07.066Z,3.10
2018-02-13T12:31:35.176Z,3.10
2018-02-13T12:34:03.321Z,3.40
2018-02-13T12:36:31.459Z,3.30
2018-02-13T12:38:59.592Z,3.40
2018-02-13T12:41:27.704Z,3.00
2018-02-13T12:43:55.843Z,2.50
2018-02-13T12:46:24.418Z,2.30
2018-02-13T12:48:52.542Z,2.50
2018-02-13T12:51:20.652Z,2.50
2018-02-13T12:53:48.808Z,2.50
2018-02-13T12:56:17.789Z,2.50
2018-02-13T12:58:45.961Z,2.70
2018-02-13T13:01:14.087Z,2.90
2018-02-13T13:03:42.981Z,3.50
2018-02-13T13:06:11.117Z,3.50
2018-02-13T13:08:39.598Z,4.10
2018-02-13T13:11:07.720Z,5.10
2018-02-13T13:13:35.836Z,5.70
2018-02-13T13:16:04.000Z,6.20
2018-02-13T13:18:32.122Z,5.40
2018-02-13T13:21:00.294Z,4.30
2018-02-13T13:23:28.378Z,3.60
2018-02-13T13:25:56.505Z,3.20
2018-02-13T13:28:24.616Z,3.10
2018-02-13T13:30:52.749Z,2.60
2018-02-13T13:33:20.873Z,2.60
2018-02-13T13:35:48.993Z,2.60
2018-02-13T13:38:17.885Z,2.30
2018-02-13T13:40:46.049Z,2.20
2018-02-13T13:43:14.209Z,2.50
2018-02-13T13:45:42.436Z,2.60
2018-02-13T13:48:10.550Z,2.60
2018-02-13T13:50:38.757Z,2.60
2018-02-13T13:53:07.637Z,2.90
2018-02-13T13:55:36.725Z,2.70
2018-02-13T13:58:05.612Z,2.50
2018-02-13T14:00:33.788Z,2.40
2018-02-13T14:03:01.958Z,2.30
2018-02-13T14:05:30.864Z,2.40
2018-02-13T14:07:59.158Z,2.40
2018-02-13T14:10:27.388Z,2.50
2018-02-13T14:12:55.571Z,2.50
2018-02-13T14:15:23.709Z,2.50
2018-02-13T14:17:51.836Z,2.60
2018-02-13T14:20:20.011Z,2.60
2018-02-13T14:22:48.861Z,2.70
2018-02-13T14:25:21.921Z,2.60
2018-02-13T14:27:50.088Z,2.80
2018-02-13T14:30:18.204Z,2.70
2018-02-13T14:32:47.180Z,2.60
2018-02-13T14:35:15.389Z,2.60
2018-02-13T14:37:43.526Z,2.60
2018-02-13T14:40:11.643Z,2.70
2018-02-13T14:42:39.785Z,2.70
2018-02-13T14:45:08.664Z,2.60
2018-02-13T14:47:37.236Z,2.60
2018-02-13T14:50:05.345Z,2.50
2018-02-13T14:52:33.480Z,2.60
2018-02-13T14:55:01.634Z,2.30
2018-02-13T14:57:29.762Z,2.20
2018-02-13T14:59:57.920Z,1.90
2018-02-13T15:02:26.161Z,1.80
2018-02-13T15:04:54.285Z,1.70
2018-02-13T15:07:22.403Z,1.50
2018-02-13T15:09:50.533Z,1.50
2018-02-13T15:12:18.653Z,1.50
2018-02-13T15:14:46.798Z,1.50
2018-02-13T15:17:17.376Z,1.40
2018-02-13T15:19:57.356Z,1.30
2018-02-13T15:22:25.476Z,1.20
2018-02-13T15:24:53.597Z,1.20
2018-02-13T15:27:21.758Z,1.10
2018-02-13T15:29:50.701Z,0.90
2018-02-13T15:32:18.816Z,0.90
2018-02-13T15:34:47.979Z,0.90
2018-02-13T15:37:16.099Z,0.90
2018-02-13T15:39:44.251Z,0.90
2018-02-13T15:42:13.667Z,0.90
2018-02-13T15:44:41.777Z,0.90
2018-02-13T15:47:12.569Z,0.90
2018-02-13T15:49:40.725Z,0.80
2018-02-13T15:52:09.765Z,0.80
2018-02-13T15:54:37.901Z,0.90
2018-02-13T15:57:06.038Z,0.80
2018-02-13T15:59:34.188Z,0.80
2018-02-13T16:02:03.104Z,0.70
2018-02-13T16:04:31.991Z,0.70
2018-02-13T16:07:00.884Z,0.60
2018-02-13T16:09:29.836Z,0.50
2018-02-13T16:11:57.970Z,0.50
2018-02-13T16:14:26.857Z,0.40
2018-02-13T16:16:54.983Z,0.40
2018-02-13T16:19:23.092Z,0.50
2018-02-13T16:21:51.241Z,0.40
2018-02-13T16:24:20.128Z,0.30
2018-02-13T16:26:48.274Z,0.30
2018-02-13T16:29:16.380Z,0.20
2018-02-13T16:31:44.514Z,0.20
2018-02-13T16:34:12.625Z,0.20
2018-02-13T16:36:40.756Z,0.10
2018-02-13T16:39:08.861Z,0.10
2018-02-13T16:41:36.992Z,0.10
2018-02-13T16:44:05.104Z,0.00
2018-02-13T16:46:34.007Z,0.00
2018-02-13T16:49:02.138Z,-0.10
2018-02-13T16:51:30.316Z,-0.10
2018-02-13T16:53:58.465Z,-0.10
2018-02-13T16:56:26.601Z,-0.20
2018-02-13T16:58:54.735Z,-0.30
2018-02-13T17:01:23.690Z,-0.40
2018-02-13T17:03:51.890Z,-0.40
2018-02-13T17:06:20.022Z,-0.40
2018-02-13T17:08:48.173Z,-0.40
2018-02-13T17:11:16.304Z,-0.50
2018-02-13T17:13:44.519Z,-0.50
2018-02-13T17:16:12.636Z,-0.60
2018-02-13T17:18:40.790Z,-0.60
2018-02-13T17:21:09.755Z,-0.70
2018-02-13T17:23:39.021Z,-0.60
2018-02-13T17:26:08.205Z,-0.70
2018-02-13T17:28:36.376Z,-0.70
2018-02-13T17:31:05.273Z,-0.90
2018-02-13T17:33:33.434Z,-0.90
2018-02-13T17:36:02.601Z,-0.90
2018-02-13T17:38:30.744Z,-0.90
2018-02-13T17:40:58.870Z,-0.90
2018-02-13T17:43:27.012Z,-0.80
2018-02-13T17:45:55.171Z,-0.90
2018-02-13T17:48:23.300Z,-0.90
2018-02-13T17:50:52.206Z,-0.90
2018-02-13T17:53:20.372Z,-1.00
2018-02-13T17:55:48.924Z,-1.00
2018-02-13T17:58:17.062Z,-1.00
2018-02-13T18:00:45.300Z,-1.00
2018-02-13T18:03:14.184Z,-1.10
2018-02-13T18:05:42.336Z,-1.10
2018-02-13T18:08:10.634Z,-1.10
2018-02-13T18:10:39.555Z,-1.20
2018-02-13T18:13:07.693Z,-1.20
2018-02-13T18:15:36.613Z,-1.10
2018-02-13T18:18:06.121Z,-1.20
2018-02-13T18:20:34.242Z,-1.20
2018-02-13T18:23:03.138Z,-1.30
2018-02-13T18:25:32.041Z,-1.30
2018-02-13T18:28:00.178Z,-1.40
2018-02-13T18:30:28.325Z,-1.30
2018-02-13T18:32:56.445Z,-1.40
2018-02-13T18:35:25.372Z,-1.50
2018-02-13T18:37:53.508Z,-1.50
2018-02-13T18:40:22.441Z,-1.50
2018-02-13T18:42:50.572Z,-1.50
2018-02-13T18:45:18.726Z,-1.50
2018-02-13T18:47:46.862Z,-1.50
2018-02-13T18:50:15.053Z,-1.60
2018-02-13T18:55:11.320Z,-1.60
2018-02-13T18:57:40.234Z,-1.60
2018-02-13T19:00:08.372Z,-1.60
2018-02-13T19:02:37.289Z,-1.60
2018-02-13T19:05:05.446Z,-1.60
2018-02-13T19:07:34.397Z,-1.60
2018-02-13T19:10:02.517Z,-1.70
2018-02-13T19:12:30.761Z,-1.60
2018-02-13T19:14:58.900Z,-1.70
2018-02-13T19:17:27.999Z,-1.70
2018-02-13T19:19:57.060Z,-1.80
2018-02-13T19:22:26.062Z,-1.80
2018-02-13T19:24:54.185Z,-1.80
2018-02-13T19:27:22.364Z,-1.80
2018-02-13T19:29:50.601Z,-1.80
2018-02-13T19:32:21.222Z,-1.90
2018-02-13T19:34:49.386Z,-1.80
2018-02-13T19:37:18.885Z,-1.90
2018-02-13T19:39:47.009Z,-1.90
2018-02-13T19:42:16.750Z,-2.00
2018-02-13T19:44:45.594Z,-2.00
2018-02-13T19:47:14.041Z,-2.00
2018-02-13T19:49:43.133Z,-2.00
2018-02-13T19:52:14.186Z,-2.00
2018-02-13T19:54:43.822Z,-2.00
2018-02-13T19:57:12.653Z,-2.10
2018-02-13T19:59:41.690Z,-2.20
2018-02-13T20:02:11.574Z,-2.30
2018-02-13T20:04:40.811Z,-2.30
2018-02-13T20:07:12.581Z,-2.20
2018-02-13T20:09:41.479Z,-2.30
2018-02-13T20:12:10.386Z,-2.50
2018-02-13T20:14:38.513Z,-2.40
2018-02-13T20:17:06.657Z,-2.50
2018-02-13T20:19:34.872Z,-2.40
2018-02-13T20:22:03.786Z,-2.30
2018-02-13T20:24:31.929Z,-2.40
2018-02-13T20:27:00.053Z,-2.40
2018-02-13T20:29:28.194Z,-2.40
2018-02-13T20:31:56.330Z,-2.30
2018-02-13T20:34:24.460Z,-2.40
2018-02-13T20:36:52.605Z,-2.50
2018-02-13T20:39:20.766Z,-2.50
2018-02-13T20:41:48.896Z,-2.50
2018-02-13T20:44:17.132Z,-2.50
2018-02-13T20:46:45.278Z,-2.50
2018-02-13T20:49:14.207Z,-2.60
2018-02-13T20:51:42.343Z,-2.60
2018-02-13T20:54:10.511Z,-2.70
2018-02-13T20:56:39.396Z,-2.60
2018-02-13T20:59:07.590Z,-2.70
2018-02-13T21:01:35.877Z,-2.70
2018-02-13T21:04:04.016Z,-2.70
2018-02-13T21:06:32.913Z,-2.90
2018-02-13T21:09:01.846Z,-2.90
2018-02-13T21:11:29.994Z,-3.00
2018-02-13T21:13:58.125Z,-3.00
2018-02-13T21:16:26.258Z,-2.90
2018-02-13T21:18:54.397Z,-2.90
2018-02-13T21:21:22.535Z,-3.00
2018-02-13T21:23:50.691Z,-3.00
2018-02-13T21:26:18.821Z,-3.00
2018-02-13T21:28:46.961Z,-2.90
2018-02-13T21:31:15.120Z,-2.90
2018-02-13T21:33:43.282Z,-2.90
2018-02-13T21:36:11.578Z,-2.90
2018-02-13T21:38:39.757Z,-2.90
2018-02-13T21:41:07.968Z,-3.00
2018-02-13T21:43:36.135Z,-3.10
2018-02-13T21:46:04.273Z,-3.10
2018-02-13T21:48:33.181Z,-3.40
2018-02-13T21:51:01.317Z,-3.40
2018-02-13T21:53:29.448Z,-3.60
2018-02-13T21:55:57.611Z,-3.60
2018-02-13T21:58:25.745Z,-3.60
2018-02-13T22:00:54.842Z,-3.60
2018-02-13T22:03:23.785Z,-3.60
2018-02-13T22:05:52.004Z,-3.60
2018-02-13T22:08:20.896Z,-3.80
2018-02-13T22:10:49.045Z,-3.80
2018-02-13T22:13:17.216Z,-3.90
2018-02-13T22:15:45.377Z,-3.90
2018-02-13T22:18:13.522Z,-3.80
2018-02-13T22:20:41.684Z,-3.90
2018-02-13T22:23:09.818Z,-3.90
2018-02-13T22:25:38.750Z,-3.90
2018-02-13T22:28:06.875Z,-3.90
2018-02-13T22:30:35.908Z,-3.90
2018-02-13T22:33:04.328Z,-3.90
2018-02-13T22:35:32.490Z,-3.90
2018-02-13T22:38:00.650Z,-3.90
2018-02-13T22:40:28.793Z,-3.90
2018-02-13T22:42:56.945Z,-3.90
2018-02-13T22:45:25.841Z,-3.90
2018-02-13T22:47:53.986Z,-3.90
2018-02-13T22:50:22.105Z,-3.90
2018-02-13T22:52:50.253Z,-4.00
2018-02-13T22:55:18.389Z,-3.90
2018-02-13T22:57:46.560Z,-4.00
2018-02-13T23:00:20.514Z,-4.20
2018-02-13T23:02:48.711Z,-4.30
2018-02-13T23:05:16.849Z,-4.30
2018-02-13T23:07:44.993Z,-4.40
2018-02-13T23:10:13.171Z,-4.30
2018-02-13T23:12:56.535Z,-4.40
2018-02-13T23:15:24.669Z,-4.40
2018-02-13T23:17:52.814Z,-4.30
2018-02-13T23:20:20.969Z,-4.30
2018-02-13T23:22:49.126Z,-4.30
2018-02-13T23:25:17.245Z,-4.20
2018-02-13T23:27:45.392Z,-4.10
2018-02-13T23:30:19.471Z,-4.20
2018-02-13T23:32:47.617Z,-4.20
2018-02-13T23:35:16.513Z,-4.20
2018-02-13T23:37:45.536Z,-4.30
2018-02-13T23:40:13.656Z,-4.30
2018-02-13T23:42:42.573Z,-4.20
2018-02-13T23:45:10.721Z,-4.20
2018-02-13T23:47:39.624Z,-4.30
2018-02-13T23:50:08.545Z,-4.30
2018-02-13T23:52:36.696Z,-4.30
2018-02-13T23:55:04.837Z,-4.40
2018-02-13T23:57:32.976Z,-4.50
